Trutnov, Czech Republic
Current Conditions -  °F | °C
As of 3:00 PM on Thursday 30 Oct 2014 (Local Time) from LKPD Reporting Station
Overcast Overcast  
Wind Chill: 48°   Ceiling: 3200
Heat Index: 48°   Visibility: 5mi
Dew Point: 41°   Wind: 3mph
Humidity: 76%   Direction: 310°NW
Pressure: 30.3"   Gusts: NA
Location:  50.57°N, 15.9°E
Report Text: LKPD 301300Z 31003KT 270V020 8000 OVC032 09/05 Q1026 NOSIG
Loading
Personal Weather Stations






























Interactive Weather Map
Tropical Storm Tracking
New forecast layout! Learn more

10-Day Weather Forecast

Advertisements
Track Severe Weather on mobile